sensor_id;sensor_type;location;lat;lon;timestamp;temperature;humidity
11762;DHT22;5938;47.098;15.474;2023-03-14T00:03:19;3.60;99.90
11762;DHT22;5938;47.098;15.474;2023-03-14T00:07:24;3.60;99.90
11762;DHT22;5938;47.098;15.474;2023-03-14T00:11:28;3.60;99.90
11762;DHT22;5938;47.098;15.474;2023-03-14T00:15:32;3.50;99.90
11762;DHT22;5938;47.098;15.474;2023-03-14T00:19:36;3.30;99.90
11762;DHT22;5938;47.098;15.474;2023-03-14T00:23:42;3.30;99.90
11762;DHT22;5938;47.098;15.474;2023-03-14T00:27:45;3.30;99.90
11762;DHT22;5938;47.098;15.474;2023-03-14T00:31:49;3.30;99.90
11762;DHT22;5938;47.098;15.474;2023-03-14T00:35:54;3.40;99.90
11762;DHT22;5938;47.098;15.474;2023-03-14T00:40:00;3.40;99.90
11762;DHT22;5938;47.098;15.474;2023-03-14T00:44:03;3.30;99.90
11762;DHT22;5938;47.098;15.474;2023-03-14T00:48:07;3.20;99.90
11762;DHT22;5938;47.098;15.474;2023-03-14T00:52:11;3.30;99.90
11762;DHT22;5938;47.098;15.474;2023-03-14T00:56:16;3.40;99.90
11762;DHT22;5938;47.098;15.474;2023-03-14T01:00:20;3.50;99.90
11762;DHT22;5938;47.098;15.474;2023-03-14T01:04:24;3.60;99.90
11762;DHT22;5938;47.098;15.474;2023-03-14T01:08:27;3.60;99.90
11762;DHT22;5938;47.098;15.474;2023-03-14T01:12:32;3.50;99.90
11762;DHT22;5938;47.098;15.474;2023-03-14T01:16:37;3.60;99.90
11762;DHT22;5938;47.098;15.474;2023-03-14T01:20:40;3.80;99.90
11762;DHT22;5938;47.098;15.474;2023-03-14T01:24:44;3.90;99.90
11762;DHT22;5938;47.098;15.474;2023-03-14T01:28:51;3.90;99.90
11762;DHT22;5938;47.098;15.474;2023-03-14T01:32:55;3.90;99.90
11762;DHT22;5938;47.098;15.474;2023-03-14T01:36:59;3.90;99.90
11762;DHT22;5938;47.098;15.474;2023-03-14T01:41:03;3.80;99.90
11762;DHT22;5938;47.098;15.474;2023-03-14T01:49:47;3.70;99.90
11762;DHT22;5938;47.098;15.474;2023-03-14T01:53:54;3.70;99.90
11762;DHT22;5938;47.098;15.474;2023-03-14T01:58:02;3.50;99.90
11762;DHT22;5938;47.098;15.474;2023-03-14T02:02:07;3.50;99.90
11762;DHT22;5938;47.098;15.474;2023-03-14T02:06:15;3.60;99.90
11762;DHT22;5938;47.098;15.474;2023-03-14T02:10:23;3.40;99.90
11762;DHT22;5938;47.098;15.474;2023-03-14T02:14:31;3.40;99.90
11762;DHT22;5938;47.098;15.474;2023-03-14T02:18:35;3.40;99.90
11762;DHT22;5938;47.098;15.474;2023-03-14T02:22:42;3.40;99.90
11762;DHT22;5938;47.098;15.474;2023-03-14T02:27:13;3.50;99.90
11762;DHT22;5938;47.098;15.474;2023-03-14T02:31:17;3.50;99.90
11762;DHT22;5938;47.098;15.474;2023-03-14T02:35:22;3.50;99.90
11762;DHT22;5938;47.098;15.474;2023-03-14T02:39:33;3.40;99.90
11762;DHT22;5938;47.098;15.474;2023-03-14T02:43:40;3.40;99.90
11762;DHT22;5938;47.098;15.474;2023-03-14T02:47:46;3.40;99.90
11762;DHT22;5938;47.098;15.474;2023-03-14T02:51:52;3.40;99.90
11762;DHT22;5938;47.098;15.474;2023-03-14T02:55:56;3.40;99.90
11762;DHT22;5938;47.098;15.474;2023-03-14T03:00:01;3.50;99.90
11762;DHT22;5938;47.098;15.474;2023-03-14T03:04:07;3.60;99.90
11762;DHT22;5938;47.098;15.474;2023-03-14T03:08:11;3.50;99.90
11762;DHT22;5938;47.098;15.474;2023-03-14T03:12:14;3.50;99.90
11762;DHT22;5938;47.098;15.474;2023-03-14T03:16:19;3.40;99.90
11762;DHT22;5938;47.098;15.474;2023-03-14T03:20:23;3.40;99.90
11762;DHT22;5938;47.098;15.474;2023-03-14T03:24:27;3.50;99.90
11762;DHT22;5938;47.098;15.474;2023-03-14T03:28:31;3.50;99.90
11762;DHT22;5938;47.098;15.474;2023-03-14T03:32:36;3.50;99.90
11762;DHT22;5938;47.098;15.474;2023-03-14T03:36:40;3.40;99.90
11762;DHT22;5938;47.098;15.474;2023-03-14T03:40:44;3.40;99.90
11762;DHT22;5938;47.098;15.474;2023-03-14T03:44:48;3.30;99.90
11762;DHT22;5938;47.098;15.474;2023-03-14T03:48:56;3.20;99.90
11762;DHT22;5938;47.098;15.474;2023-03-14T03:53:03;3.20;99.90
11762;DHT22;5938;47.098;15.474;2023-03-14T03:57:09;3.20;99.90
11762;DHT22;5938;47.098;15.474;2023-03-14T04:01:18;3.20;99.90
11762;DHT22;5938;47.098;15.474;2023-03-14T04:05:23;3.20;99.90
11762;DHT22;5938;47.098;15.474;2023-03-14T04:09:27;3.20;99.90
11762;DHT22;5938;47.098;15.474;2023-03-14T04:13:31;3.00;99.90
11762;DHT22;5938;47.098;15.474;2023-03-14T04:17:34;2.90;99.90
11762;DHT22;5938;47.098;15.474;2023-03-14T04:21:39;3.00;99.90
11762;DHT22;5938;47.098;15.474;2023-03-14T04:25:47;3.10;99.90
11762;DHT22;5938;47.098;15.474;2023-03-14T04:29:53;3.10;99.90
11762;DHT22;5938;47.098;15.474;2023-03-14T04:33:57;3.20;99.90
11762;DHT22;5938;47.098;15.474;2023-03-14T04:38:02;3.30;99.90
11762;DHT22;5938;47.098;15.474;2023-03-14T04:42:07;3.50;99.90
11762;DHT22;5938;47.098;15.474;2023-03-14T04:46:10;3.50;99.90
11762;DHT22;5938;47.098;15.474;2023-03-14T04:50:16;3.70;99.90
11762;DHT22;5938;47.098;15.474;2023-03-14T04:54:21;3.90;99.90
11762;DHT22;5938;47.098;15.474;2023-03-14T04:58:25;4.30;99.90
11762;DHT22;5938;47.098;15.474;2023-03-14T05:02:29;4.40;99.90
11762;DHT22;5938;47.098;15.474;2023-03-14T05:06:33;4.70;99.90
11762;DHT22;5938;47.098;15.474;2023-03-14T05:10:39;5.00;99.90
11762;DHT22;5938;47.098;15.474;2023-03-14T05:14:43;5.10;99.90
11762;DHT22;5938;47.098;15.474;2023-03-14T05:18:46;5.20;99.90
11762;DHT22;5938;47.098;15.474;2023-03-14T05:22:50;5.30;99.90
11762;DHT22;5938;47.098;15.474;2023-03-14T05:26:55;5.40;99.90
11762;DHT22;5938;47.098;15.474;2023-03-14T05:30:59;5.40;99.90
11762;DHT22;5938;47.098;15.474;2023-03-14T05:35:04;5.50;99.90
11762;DHT22;5938;47.098;15.474;2023-03-14T05:39:08;5.70;99.90
11762;DHT22;5938;47.098;15.474;2023-03-14T05:43:13;5.80;99.90
11762;DHT22;5938;47.098;15.474;2023-03-14T05:47:18;5.80;99.90
11762;DHT22;5938;47.098;15.474;2023-03-14T05:51:21;5.90;99.90
11762;DHT22;5938;47.098;15.474;2023-03-14T05:55:25;6.10;99.90
11762;DHT22;5938;47.098;15.474;2023-03-14T05:59:30;6.20;99.90
11762;DHT22;5938;47.098;15.474;2023-03-14T06:03:33;6.30;99.90
11762;DHT22;5938;47.098;15.474;2023-03-14T06:07:37;6.50;99.90
11762;DHT22;5938;47.098;15.474;2023-03-14T06:11:41;6.60;99.90
11762;DHT22;5938;47.098;15.474;2023-03-14T06:15:47;6.70;99.90
11762;DHT22;5938;47.098;15.474;2023-03-14T06:19:50;7.00;99.90
11762;DHT22;5938;47.098;15.474;2023-03-14T06:23:53;7.30;99.90
11762;DHT22;5938;47.098;15.474;2023-03-14T06:27:57;7.40;99.90
11762;DHT22;5938;47.098;15.474;2023-03-14T06:32:01;7.60;99.90
11762;DHT22;5938;47.098;15.474;2023-03-14T06:36:07;7.80;99.90
11762;DHT22;5938;47.098;15.474;2023-03-14T06:40:12;8.00;99.90
11762;DHT22;5938;47.098;15.474;2023-03-14T06:44:18;8.20;99.90
11762;DHT22;5938;47.098;15.474;2023-03-14T06:48:23;8.30;99.90
11762;DHT22;5938;47.098;15.474;2023-03-14T06:52:27;8.40;99.90
11762;DHT22;5938;47.098;15.474;2023-03-14T06:56:32;8.50;99.90
11762;DHT22;5938;47.098;15.474;2023-03-14T07:00:36;8.80;99.90
11762;DHT22;5938;47.098;15.474;2023-03-14T07:04:41;8.80;99.90
11762;DHT22;5938;47.098;15.474;2023-03-14T07:08:44;8.70;99.90
11762;DHT22;5938;47.098;15.474;2023-03-14T07:12:48;9.00;99.90
11762;DHT22;5938;47.098;15.474;2023-03-14T07:16:51;9.10;99.90
11762;DHT22;5938;47.098;15.474;2023-03-14T07:20:56;9.50;99.90
11762;DHT22;5938;47.098;15.474;2023-03-14T07:24:59;9.50;99.90
11762;DHT22;5938;47.098;15.474;2023-03-14T07:29:03;9.90;99.90
11762;DHT22;5938;47.098;15.474;2023-03-14T07:33:07;10.20;99.90
11762;DHT22;5938;47.098;15.474;2023-03-14T07:37:14;10.40;99.90
11762;DHT22;5938;47.098;15.474;2023-03-14T07:41:17;10.50;99.90
11762;DHT22;5938;47.098;15.474;2023-03-14T07:45:22;10.70;99.90
11762;DHT22;5938;47.098;15.474;2023-03-14T07:49:26;11.10;99.90
11762;DHT22;5938;47.098;15.474;2023-03-14T07:53:31;11.20;99.90
11762;DHT22;5938;47.098;15.474;2023-03-14T07:57:34;11.50;99.90
11762;DHT22;5938;47.098;15.474;2023-03-14T08:01:38;12.20;99.90
11762;DHT22;5938;47.098;15.474;2023-03-14T08:05:41;12.70;99.90
11762;DHT22;5938;47.098;15.474;2023-03-14T08:09:46;13.20;99.90
11762;DHT22;5938;47.098;15.474;2023-03-14T08:13:49;13.70;99.90
11762;DHT22;5938;47.098;15.474;2023-03-14T08:17:53;13.60;99.90
11762;DHT22;5938;47.098;15.474;2023-03-14T08:21:57;14.00;99.90
11762;DHT22;5938;47.098;15.474;2023-03-14T08:26:02;13.60;99.60
11762;DHT22;5938;47.098;15.474;2023-03-14T08:30:08;14.00;99.60
11762;DHT22;5938;47.098;15.474;2023-03-14T08:34:12;14.00;99.40
11762;DHT22;5938;47.098;15.474;2023-03-14T08:38:15;14.20;98.70
11762;DHT22;5938;47.098;15.474;2023-03-14T08:42:20;13.90;98.30
11762;DHT22;5938;47.098;15.474;2023-03-14T08:46:23;13.90;98.50
11762;DHT22;5938;47.098;15.474;2023-03-14T08:50:27;14.00;98.40
11762;DHT22;5938;47.098;15.474;2023-03-14T08:54:30;14.10;98.20
11762;DHT22;5938;47.098;15.474;2023-03-14T08:58:35;14.10;97.70
11762;DHT22;5938;47.098;15.474;2023-03-14T09:02:44;14.00;97.80
11762;DHT22;5938;47.098;15.474;2023-03-14T09:06:47;14.10;98.00
11762;DHT22;5938;47.098;15.474;2023-03-14T09:10:50;14.30;97.90
11762;DHT22;5938;47.098;15.474;2023-03-14T09:14:55;14.60;97.40
11762;DHT22;5938;47.098;15.474;2023-03-14T09:18:58;15.20;96.70
11762;DHT22;5938;47.098;15.474;2023-03-14T09:23:02;16.00;95.60
11762;DHT22;5938;47.098;15.474;2023-03-14T09:27:05;17.60;93.30
11762;DHT22;5938;47.098;15.474;2023-03-14T09:31:11;18.00;92.80
11762;DHT22;5938;47.098;15.474;2023-03-14T09:35:15;17.50;93.10
11762;DHT22;5938;47.098;15.474;2023-03-14T09:39:18;16.50;93.80
11762;DHT22;5938;47.098;15.474;2023-03-14T09:43:22;15.30;94.70
11762;DHT22;5938;47.098;15.474;2023-03-14T09:47:29;14.40;95.90
11762;DHT22;5938;47.098;15.474;2023-03-14T09:51:35;13.90;97.10
11762;DHT22;5938;47.098;15.474;2023-03-14T09:55:39;13.80;97.00
11762;DHT22;5938;47.098;15.474;2023-03-14T09:59:45;13.50;97.60
11762;DHT22;5938;47.098;15.474;2023-03-14T10:03:53;13.30;98.30
11762;DHT22;5938;47.098;15.474;2023-03-14T10:07:58;13.30;98.70
11762;DHT22;5938;47.098;15.474;2023-03-14T10:12:01;13.10;98.90
11762;DHT22;5938;47.098;15.474;2023-03-14T10:16:11;12.90;99.30
11762;DHT22;5938;47.098;15.474;2023-03-14T10:20:31;12.90;99.60
11762;DHT22;5938;47.098;15.474;2023-03-14T10:24:35;13.30;99.90
11762;DHT22;5938;47.098;15.474;2023-03-14T10:28:42;13.80;99.50
11762;DHT22;5938;47.098;15.474;2023-03-14T10:32:46;14.20;98.30
11762;DHT22;5938;47.098;15.474;2023-03-14T10:36:54;14.50;98.00
11762;DHT22;5938;47.098;15.474;2023-03-14T10:40:59;14.90;97.20
11762;DHT22;5938;47.098;15.474;2023-03-14T10:45:04;15.50;96.60
11762;DHT22;5938;47.098;15.474;2023-03-14T10:49:25;16.30;95.20
11762;DHT22;5938;47.098;15.474;2023-03-14T10:53:41;16.70;93.90
11762;DHT22;5938;47.098;15.474;2023-03-14T10:57:45;16.00;94.20
11762;DHT22;5938;47.098;15.474;2023-03-14T11:01:54;15.60;94.80
11762;DHT22;5938;47.098;15.474;2023-03-14T11:06:07;15.30;95.30
11762;DHT22;5938;47.098;15.474;2023-03-14T11:10:24;14.90;94.30
11762;DHT22;5938;47.098;15.474;2023-03-14T11:14:35;14.60;94.50
11762;DHT22;5938;47.098;15.474;2023-03-14T11:19:03;15.00;93.00
11762;DHT22;5938;47.098;15.474;2023-03-14T11:23:12;15.50;91.70
11762;DHT22;5938;47.098;15.474;2023-03-14T11:27:22;15.50;90.60
11762;DHT22;5938;47.098;15.474;2023-03-14T11:31:27;15.50;89.70
11762;DHT22;5938;47.098;15.474;2023-03-14T11:35:34;16.20;88.40
11762;DHT22;5938;47.098;15.474;2023-03-14T11:39:41;17.40;84.60
11762;DHT22;5938;47.098;15.474;2023-03-14T11:43:53;20.00;78.50
11762;DHT22;5938;47.098;15.474;2023-03-14T11:48:14;21.10;73.90
11762;DHT22;5938;47.098;15.474;2023-03-14T11:52:23;20.40;72.80
11762;DHT22;5938;47.098;15.474;2023-03-14T11:56:32;19.40;76.70
11762;DHT22;5938;47.098;15.474;2023-03-14T12:00:38;18.60;78.20
11762;DHT22;5938;47.098;15.474;2023-03-14T12:04:53;17.30;79.10
11762;DHT22;5938;47.098;15.474;2023-03-14T12:08:58;17.00;79.30
11762;DHT22;5938;47.098;15.474;2023-03-14T12:13:02;16.70;79.90
11762;DHT22;5938;47.098;15.474;2023-03-14T12:17:18;16.50;81.80
11762;DHT22;5938;47.098;15.474;2023-03-14T12:21:42;16.60;79.30
11762;DHT22;5938;47.098;15.474;2023-03-14T12:25:46;16.90;80.00
11762;DHT22;5938;47.098;15.474;2023-03-14T12:29:58;16.70;80.50
11762;DHT22;5938;47.098;15.474;2023-03-14T12:34:31;16.60;79.30
11762;DHT22;5938;47.098;15.474;2023-03-14T12:43:24;15.80;80.70
11762;DHT22;5938;47.098;15.474;2023-03-14T12:47:50;15.40;81.40
11762;DHT22;5938;47.098;15.474;2023-03-14T12:52:01;15.10;81.20
11762;DHT22;5938;47.098;15.474;2023-03-14T12:56:11;14.90;82.50
11762;DHT22;5938;47.098;15.474;2023-03-14T13:00:21;14.90;82.10
11762;DHT22;5938;47.098;15.474;2023-03-14T13:04:28;14.90;82.70
11762;DHT22;5938;47.098;15.474;2023-03-14T13:08:43;14.90;83.10
11762;DHT22;5938;47.098;15.474;2023-03-14T13:12:51;14.80;84.10
11762;DHT22;5938;47.098;15.474;2023-03-14T13:16:54;14.90;82.10
11762;DHT22;5938;47.098;15.474;2023-03-14T13:21:01;15.10;82.70
11762;DHT22;5938;47.098;15.474;2023-03-14T13:25:10;15.10;84.00
11762;DHT22;5938;47.098;15.474;2023-03-14T13:29:16;14.90;85.00
11762;DHT22;5938;47.098;15.474;2023-03-14T13:33:22;14.60;86.80
11762;DHT22;5938;47.098;15.474;2023-03-14T13:37:26;14.50;86.70
11762;DHT22;5938;47.098;15.474;2023-03-14T13:41:31;14.50;86.70
11762;DHT22;5938;47.098;15.474;2023-03-14T13:50:04;14.30;87.50
11762;DHT22;5938;47.098;15.474;2023-03-14T13:54:13;14.30;89.40
11762;DHT22;5938;47.098;15.474;2023-03-14T13:58:24;14.30;88.60
11762;DHT22;5938;47.098;15.474;2023-03-14T14:02:30;14.20;88.50
11762;DHT22;5938;47.098;15.474;2023-03-14T14:06:36;14.10;89.30
11762;DHT22;5938;47.098;15.474;2023-03-14T14:10:40;13.80;89.30
11762;DHT22;5938;47.098;15.474;2023-03-14T14:14:48;13.70;90.20
11762;DHT22;5938;47.098;15.474;2023-03-14T14:18:53;13.60;90.40
11762;DHT22;5938;47.098;15.474;2023-03-14T14:22:59;13.50;90.30
11762;DHT22;5938;47.098;15.474;2023-03-14T14:27:12;13.60;90.40
11762;DHT22;5938;47.098;15.474;2023-03-14T14:31:20;13.70;90.60
11762;DHT22;5938;47.098;15.474;2023-03-14T14:35:30;13.80;90.40
11762;DHT22;5938;47.098;15.474;2023-03-14T14:39:35;13.90;90.40
11762;DHT22;5938;47.098;15.474;2023-03-14T14:43:42;14.00;89.90
11762;DHT22;5938;47.098;15.474;2023-03-14T14:47:52;14.10;89.80
11762;DHT22;5938;47.098;15.474;2023-03-14T14:52:01;14.10;88.80
11762;DHT22;5938;47.098;15.474;2023-03-14T14:56:13;14.20;88.60
11762;DHT22;5938;47.098;15.474;2023-03-14T15:00:20;14.10;89.20
11762;DHT22;5938;47.098;15.474;2023-03-14T15:04:26;14.10;88.80
11762;DHT22;5938;47.098;15.474;2023-03-14T15:08:30;14.20;89.30
11762;DHT22;5938;47.098;15.474;2023-03-14T15:12:33;14.30;90.30
11762;DHT22;5938;47.098;15.474;2023-03-14T15:16:37;14.40;89.80
11762;DHT22;5938;47.098;15.474;2023-03-14T15:20:43;14.50;89.30
11762;DHT22;5938;47.098;15.474;2023-03-14T15:24:46;14.90;87.10
11762;DHT22;5938;47.098;15.474;2023-03-14T15:28:50;15.20;86.30
11762;DHT22;5938;47.098;15.474;2023-03-14T15:32:53;15.20;85.80
11762;DHT22;5938;47.098;15.474;2023-03-14T15:36:58;15.20;86.00
11762;DHT22;5938;47.098;15.474;2023-03-14T15:41:02;14.90;86.30
11762;DHT22;5938;47.098;15.474;2023-03-14T15:45:06;14.70;86.90
11762;DHT22;5938;47.098;15.474;2023-03-14T15:49:10;14.40;86.60
11762;DHT22;5938;47.098;15.474;2023-03-14T15:53:15;14.10;87.80
11762;DHT22;5938;47.098;15.474;2023-03-14T15:57:19;13.90;88.20
11762;DHT22;5938;47.098;15.474;2023-03-14T16:01:22;13.80;89.90
11762;DHT22;5938;47.098;15.474;2023-03-14T16:05:27;13.60;90.40
11762;DHT22;5938;47.098;15.474;2023-03-14T16:09:31;13.40;90.80
11762;DHT22;5938;47.098;15.474;2023-03-14T16:13:35;13.20;90.90
11762;DHT22;5938;47.098;15.474;2023-03-14T16:17:41;13.20;90.50
11762;DHT22;5938;47.098;15.474;2023-03-14T16:21:45;13.10;90.90
11762;DHT22;5938;47.098;15.474;2023-03-14T16:25:51;12.90;91.00
11762;DHT22;5938;47.098;15.474;2023-03-14T16:29:55;12.90;91.40
11762;DHT22;5938;47.098;15.474;2023-03-14T16:34:01;12.80;91.50
11762;DHT22;5938;47.098;15.474;2023-03-14T16:38:06;12.70;91.70
11762;DHT22;5938;47.098;15.474;2023-03-14T16:42:11;12.50;92.10
11762;DHT22;5938;47.098;15.474;2023-03-14T16:46:16;12.50;92.10
11762;DHT22;5938;47.098;15.474;2023-03-14T16:50:20;12.50;92.10
11762;DHT22;5938;47.098;15.474;2023-03-14T16:54:24;12.30;92.00
11762;DHT22;5938;47.098;15.474;2023-03-14T16:58:29;12.20;92.40
11762;DHT22;5938;47.098;15.474;2023-03-14T17:02:34;11.90;92.80
11762;DHT22;5938;47.098;15.474;2023-03-14T17:06:37;11.80;93.10
11762;DHT22;5938;47.098;15.474;2023-03-14T17:10:41;11.70;93.80
11762;DHT22;5938;47.098;15.474;2023-03-14T17:14:47;11.60;93.90
11762;DHT22;5938;47.098;15.474;2023-03-14T17:18:52;11.40;93.80
11762;DHT22;5938;47.098;15.474;2023-03-14T17:22:57;11.30;93.80
11762;DHT22;5938;47.098;15.474;2023-03-14T17:27:02;11.20;94.30
11762;DHT22;5938;47.098;15.474;2023-03-14T17:31:09;11.00;95.10
11762;DHT22;5938;47.098;15.474;2023-03-14T17:35:16;10.90;94.70
11762;DHT22;5938;47.098;15.474;2023-03-14T17:39:20;10.90;94.60
11762;DHT22;5938;47.098;15.474;2023-03-14T17:43:24;10.90;95.60
11762;DHT22;5938;47.098;15.474;2023-03-14T17:47:31;10.80;95.20
11762;DHT22;5938;47.098;15.474;2023-03-14T17:51:36;10.60;95.60
11762;DHT22;5938;47.098;15.474;2023-03-14T17:55:41;10.60;96.00
11762;DHT22;5938;47.098;15.474;2023-03-14T17:59:47;10.50;95.90
11762;DHT22;5938;47.098;15.474;2023-03-14T18:03:53;10.40;96.40
11762;DHT22;5938;47.098;15.474;2023-03-14T18:08:08;10.40;96.20
11762;DHT22;5938;47.098;15.474;2023-03-14T18:12:16;10.30;96.60
11762;DHT22;5938;47.098;15.474;2023-03-14T18:16:22;10.30;96.60
11762;DHT22;5938;47.098;15.474;2023-03-14T18:20:28;10.20;96.70
11762;DHT22;5938;47.098;15.474;2023-03-14T18:24:33;10.00;97.20
11762;DHT22;5938;47.098;15.474;2023-03-14T18:28:41;9.90;98.10
11762;DHT22;5938;47.098;15.474;2023-03-14T18:32:45;9.90;98.40
11762;DHT22;5938;47.098;15.474;2023-03-14T18:36:53;9.80;98.60
11762;DHT22;5938;47.098;15.474;2023-03-14T18:41:03;9.80;98.80
11762;DHT22;5938;47.098;15.474;2023-03-14T18:45:09;9.80;98.70
11762;DHT22;5938;47.098;15.474;2023-03-14T18:49:15;9.90;98.20
11762;DHT22;5938;47.098;15.474;2023-03-14T18:53:25;9.90;98.20
11762;DHT22;5938;47.098;15.474;2023-03-14T18:57:34;10.00;98.20
11762;DHT22;5938;47.098;15.474;2023-03-14T19:01:39;9.90;99.90
11762;DHT22;5938;47.098;15.474;2023-03-14T19:05:45;9.70;99.90
11762;DHT22;5938;47.098;15.474;2023-03-14T19:09:51;9.50;99.90
11762;DHT22;5938;47.098;15.474;2023-03-14T19:14:10;9.40;99.90
11762;DHT22;5938;47.098;15.474;2023-03-14T19:18:27;9.30;99.90
11762;DHT22;5938;47.098;15.474;2023-03-14T19:22:35;9.30;99.90
11762;DHT22;5938;47.098;15.474;2023-03-14T19:26:50;9.20;99.90
11762;DHT22;5938;47.098;15.474;2023-03-14T19:31:03;9.10;99.90
11762;DHT22;5938;47.098;15.474;2023-03-14T19:35:14;9.10;99.90
11762;DHT22;5938;47.098;15.474;2023-03-14T19:39:20;9.00;99.90
11762;DHT22;5938;47.098;15.474;2023-03-14T19:43:33;9.00;99.90
11762;DHT22;5938;47.098;15.474;2023-03-14T19:47:43;9.00;99.90
11762;DHT22;5938;47.098;15.474;2023-03-14T19:51:58;8.90;99.90
11762;DHT22;5938;47.098;15.474;2023-03-14T19:56:10;9.00;99.90
11762;DHT22;5938;47.098;15.474;2023-03-14T20:00:19;9.50;98.10
11762;DHT22;5938;47.098;15.474;2023-03-14T20:04:54;9.60;97.40
11762;DHT22;5938;47.098;15.474;2023-03-14T20:09:11;9.90;96.50
11762;DHT22;5938;47.098;15.474;2023-03-14T20:13:25;10.10;94.90
11762;DHT22;5938;47.098;15.474;2023-03-14T20:17:43;10.20;94.60
11762;DHT22;5938;47.098;15.474;2023-03-14T20:22:05;10.20;93.90
11762;DHT22;5938;47.098;15.474;2023-03-14T20:26:22;10.20;93.70
11762;DHT22;5938;47.098;15.474;2023-03-14T20:30:45;10.20;93.90
11762;DHT22;5938;47.098;15.474;2023-03-14T20:35:00;10.20;93.50
11762;DHT22;5938;47.098;15.474;2023-03-14T20:39:12;10.30;93.20
11762;DHT22;5938;47.098;15.474;2023-03-14T20:43:19;10.10;93.40
11762;DHT22;5938;47.098;15.474;2023-03-14T20:47:26;10.10;92.90
11762;DHT22;5938;47.098;15.474;2023-03-14T20:51:32;10.20;92.50
11762;DHT22;5938;47.098;15.474;2023-03-14T20:55:38;10.10;92.80
11762;DHT22;5938;47.098;15.474;2023-03-14T20:59:44;10.10;92.20
11762;DHT22;5938;47.098;15.474;2023-03-14T21:03:49;10.00;92.40
11762;DHT22;5938;47.098;15.474;2023-03-14T21:07:56;10.00;91.60
11762;DHT22;5938;47.098;15.474;2023-03-14T21:12:02;10.10;91.70
11762;DHT22;5938;47.098;15.474;2023-03-14T21:16:08;10.00;91.50
11762;DHT22;5938;47.098;15.474;2023-03-14T21:20:13;9.90;92.20
11762;DHT22;5938;47.098;15.474;2023-03-14T21:24:20;9.90;92.20
11762;DHT22;5938;47.098;15.474;2023-03-14T21:28:27;9.70;92.50
11762;DHT22;5938;47.098;15.474;2023-03-14T21:32:32;9.60;93.30
11762;DHT22;5938;47.098;15.474;2023-03-14T21:36:37;9.50;93.20
11762;DHT22;5938;47.098;15.474;2023-03-14T21:40:42;9.40;93.70
11762;DHT22;5938;47.098;15.474;2023-03-14T21:44:51;9.20;93.90
11762;DHT22;5938;47.098;15.474;2023-03-14T21:48:57;9.30;93.10
11762;DHT22;5938;47.098;15.474;2023-03-14T21:53:01;9.00;93.50
11762;DHT22;5938;47.098;15.474;2023-03-14T21:57:06;8.90;93.50
11762;DHT22;5938;47.098;15.474;2023-03-14T22:01:09;8.80;94.00
11762;DHT22;5938;47.098;15.474;2023-03-14T22:05:15;8.80;94.10
11762;DHT22;5938;47.098;15.474;2023-03-14T22:09:19;8.70;93.40
11762;DHT22;5938;47.098;15.474;2023-03-14T22:13:25;8.70;92.70
11762;DHT22;5938;47.098;15.474;2023-03-14T22:17:28;8.80;91.00
11762;DHT22;5938;47.098;15.474;2023-03-14T22:21:31;8.80;90.50
11762;DHT22;5938;47.098;15.474;2023-03-14T22:25:38;8.90;90.40
11762;DHT22;5938;47.098;15.474;2023-03-14T22:29:43;8.90;89.70
11762;DHT22;5938;47.098;15.474;2023-03-14T22:33:47;8.90;90.00
11762;DHT22;5938;47.098;15.474;2023-03-14T22:37:51;8.80;90.10
11762;DHT22;5938;47.098;15.474;2023-03-14T22:41:54;8.80;87.00
11762;DHT22;5938;47.098;15.474;2023-03-14T22:46:00;8.90;86.40
11762;DHT22;5938;47.098;15.474;2023-03-14T22:50:05;8.80;87.10
11762;DHT22;5938;47.098;15.474;2023-03-14T22:54:09;8.80;86.60
11762;DHT22;5938;47.098;15.474;2023-03-14T22:58:12;8.80;82.40
11762;DHT22;5938;47.098;15.474;2023-03-14T23:02:17;8.90;80.30
11762;DHT22;5938;47.098;15.474;2023-03-14T23:06:23;9.00;78.10
11762;DHT22;5938;47.098;15.474;2023-03-14T23:10:26;8.90;76.30
11762;DHT22;5938;47.098;15.474;2023-03-14T23:14:31;8.80;75.70
11762;DHT22;5938;47.098;15.474;2023-03-14T23:18:37;8.70;76.20
11762;DHT22;5938;47.098;15.474;2023-03-14T23:22:41;8.70;74.20
11762;DHT22;5938;47.098;15.474;2023-03-14T23:26:44;8.70;74.40
11762;DHT22;5938;47.098;15.474;2023-03-14T23:30:52;8.60;76.00
11762;DHT22;5938;47.098;15.474;2023-03-14T23:34:58;8.30;76.90
11762;DHT22;5938;47.098;15.474;2023-03-14T23:39:02;8.20;76.30
11762;DHT22;5938;47.098;15.474;2023-03-14T23:43:05;8.30;72.70
11762;DHT22;5938;47.098;15.474;2023-03-14T23:47:10;8.40;71.40
11762;DHT22;5938;47.098;15.474;2023-03-14T23:51:15;8.60;71.10
11762;DHT22;5938;47.098;15.474;2023-03-14T23:55:19;8.80;71.20
11762;DHT22;5938;47.098;15.474;2023-03-14T23:59:22;8.70;71.00
